createdAt,value
2023-04-18T00:00:25.160Z,1064.00
2023-04-18T00:01:25.197Z,1064.00
2023-04-18T00:02:25.280Z,1060.00
2023-04-18T00:03:25.483Z,1062.00
2023-04-18T00:04:25.426Z,1065.00
2023-04-18T00:05:25.367Z,1064.00
2023-04-18T00:06:25.368Z,1065.00
2023-04-18T00:07:25.405Z,1067.00
2023-04-18T00:08:25.461Z,1067.00
2023-04-18T00:09:25.580Z,1072.00
2023-04-18T00:10:25.528Z,1066.00
2023-04-18T00:11:25.570Z,1064.00
2023-04-18T00:12:25.602Z,1060.00
2023-04-18T00:13:25.645Z,1058.00
2023-04-18T00:14:25.678Z,1057.00
2023-04-18T00:15:25.727Z,1054.00
2023-04-18T00:16:25.773Z,1054.00
2023-04-18T00:17:25.797Z,1055.00
2023-04-18T00:18:25.803Z,1056.00
2023-04-18T00:19:25.844Z,1058.00
2023-04-18T00:20:25.889Z,1062.00
2023-04-18T00:21:25.924Z,1062.00
2023-04-18T00:22:25.975Z,1063.00
2023-04-18T00:23:25.994Z,1061.00
2023-04-18T00:24:26.043Z,1060.00
2023-04-18T00:25:26.077Z,1059.00
2023-04-18T00:26:26.110Z,1058.00
2023-04-18T00:27:26.146Z,1057.00
2023-04-18T00:28:26.186Z,1055.00
2023-04-18T00:29:26.225Z,1054.00
2023-04-18T00:30:26.283Z,1056.00
2023-04-18T00:31:26.411Z,1054.00
2023-04-18T00:32:26.354Z,1053.00
2023-04-18T00:33:26.382Z,1055.00
2023-04-18T00:34:26.429Z,1060.00
2023-04-18T00:35:26.467Z,1049.00
2023-04-18T00:36:26.509Z,1056.00
2023-04-18T00:37:26.551Z,1059.00
2023-04-18T00:38:26.587Z,1058.00
2023-04-18T00:39:26.633Z,1059.00
2023-04-18T00:40:26.673Z,1055.00
2023-04-18T00:41:26.712Z,1049.00
2023-04-18T00:42:26.747Z,1051.00
2023-04-18T00:43:26.795Z,1053.00
2023-04-18T00:44:26.823Z,1056.00
2023-04-18T00:45:26.872Z,1057.00
2023-04-18T00:46:26.964Z,1057.00
2023-04-18T00:47:27.013Z,1058.00
2023-04-18T00:48:26.992Z,1060.00
2023-04-18T00:49:27.039Z,1058.00
2023-04-18T00:50:27.082Z,1053.00
2023-04-18T00:51:27.125Z,1052.00
2023-04-18T00:52:27.252Z,1050.00
2023-04-18T00:53:27.218Z,1048.00
2023-04-18T00:54:27.276Z,1049.00
2023-04-18T00:55:27.318Z,1047.00
2023-04-18T00:56:27.365Z,1047.00
2023-04-18T00:57:27.399Z,1045.00
2023-04-18T00:58:27.432Z,1049.00
2023-04-18T00:59:27.446Z,1049.00
2023-04-18T01:00:27.525Z,1051.00
2023-04-18T01:01:27.594Z,1049.00
2023-04-18T01:02:27.673Z,1046.00
2023-04-18T01:03:27.777Z,1044.00
2023-04-18T01:04:27.787Z,1044.00
2023-04-18T01:05:27.700Z,1041.00
2023-04-18T01:06:27.743Z,1040.00
2023-04-18T01:07:27.788Z,1038.00
2023-04-18T01:08:27.824Z,1040.00
2023-04-18T01:09:27.870Z,1043.00
2023-04-18T01:10:27.901Z,1041.00
2023-04-18T01:11:27.954Z,1042.00
2023-04-18T01:12:27.998Z,1042.00
2023-04-18T01:13:28.046Z,1046.00
2023-04-18T01:14:28.090Z,1047.00
2023-04-18T01:15:28.132Z,1048.00
2023-04-18T01:16:28.357Z,1046.00
2023-04-18T01:17:28.323Z,1045.00
2023-04-18T01:18:28.279Z,1045.00
2023-04-18T01:19:28.326Z,1043.00
2023-04-18T01:20:28.370Z,1045.00
2023-04-18T01:21:28.416Z,1047.00
2023-04-18T01:22:28.461Z,1045.00
2023-04-18T01:23:28.513Z,1044.00
2023-04-18T01:24:28.555Z,1041.00
2023-04-18T01:25:28.596Z,1039.00
2023-04-18T01:26:28.638Z,1039.00
2023-04-18T01:27:28.690Z,1038.00
2023-04-18T01:28:28.717Z,1039.00
2023-04-18T01:29:28.758Z,1039.00
2023-04-18T01:30:28.795Z,1041.00
2023-04-18T01:31:28.901Z,1038.00
2023-04-18T01:32:28.914Z,1039.00
2023-04-18T01:33:28.920Z,1041.00
2023-04-18T01:34:28.966Z,1037.00
2023-04-18T01:35:29.014Z,1036.00
2023-04-18T01:36:29.053Z,1033.00
2023-04-18T01:37:29.095Z,1035.00
2023-04-18T01:38:29.145Z,1034.00
2023-04-18T01:39:29.189Z,1034.00
2023-04-18T01:40:29.225Z,1034.00
2023-04-18T01:41:29.270Z,1030.00
2023-04-18T01:42:29.333Z,1034.00
2023-04-18T01:43:29.373Z,1035.00
2023-04-18T01:44:29.414Z,1035.00
2023-04-18T01:45:29.457Z,1032.00
2023-04-18T01:46:29.585Z,1031.00
2023-04-18T01:47:29.550Z,1032.00
2023-04-18T01:48:29.599Z,1034.00
2023-04-18T01:49:29.649Z,1034.00
2023-04-18T01:50:29.677Z,1038.00
2023-04-18T01:51:29.725Z,1035.00
2023-04-18T01:52:29.772Z,1032.00
2023-04-18T01:53:29.825Z,1034.00
2023-04-18T01:54:29.868Z,1036.00
2023-04-18T01:55:29.904Z,1036.00
2023-04-18T01:56:29.950Z,1034.00
2023-04-18T01:57:29.997Z,1032.00
2023-04-18T01:58:30.049Z,1034.00
2023-04-18T01:59:30.097Z,1032.00
2023-04-18T02:00:30.176Z,1034.00
2023-04-18T02:01:30.185Z,1034.00
2023-04-18T02:02:30.393Z,1030.00
2023-04-18T02:03:30.380Z,1028.00
2023-04-18T02:04:30.313Z,1028.00
2023-04-18T02:05:30.351Z,1026.00
2023-04-18T02:06:30.391Z,1024.00
2023-04-18T02:07:30.452Z,1028.00
2023-04-18T02:08:30.459Z,1026.00
2023-04-18T02:09:30.496Z,1022.00
2023-04-18T02:10:30.534Z,1022.00
2023-04-18T02:11:30.577Z,1022.00
2023-04-18T02:12:30.616Z,1022.00
2023-04-18T02:13:30.668Z,1024.00
2023-04-18T02:14:30.702Z,1024.00
2023-04-18T02:15:30.744Z,1023.00
2023-04-18T02:16:30.836Z,1022.00
2023-04-18T02:17:30.842Z,1025.00
2023-04-18T02:18:30.869Z,1022.00
2023-04-18T02:19:30.912Z,1018.00
2023-04-18T02:20:30.955Z,1016.00
2023-04-18T02:21:30.988Z,1016.00
2023-04-18T02:22:31.039Z,1019.00
2023-04-18T02:23:31.064Z,1019.00
2023-04-18T02:24:31.093Z,1019.00
2023-04-18T02:25:31.139Z,1021.00
2023-04-18T02:26:31.187Z,1021.00
2023-04-18T02:27:31.223Z,1021.00
2023-04-18T02:28:31.254Z,1021.00
2023-04-18T02:29:31.298Z,1022.00
2023-04-18T02:30:31.343Z,1024.00
2023-04-18T02:31:31.433Z,1020.00
2023-04-18T02:32:31.499Z,1022.00
2023-04-18T02:33:31.449Z,1022.00
2023-04-18T02:34:31.506Z,1023.00
2023-04-18T02:35:31.553Z,1022.00
2023-04-18T02:36:31.586Z,1025.00
2023-04-18T02:37:31.627Z,1024.00
2023-04-18T02:38:31.680Z,1022.00
2023-04-18T02:39:31.705Z,1022.00
2023-04-18T02:40:31.765Z,1019.00
2023-04-18T02:41:31.815Z,1016.00
2023-04-18T02:42:31.855Z,1017.00
2023-04-18T02:43:31.904Z,1019.00
2023-04-18T02:44:31.963Z,1017.00
2023-04-18T02:45:32.018Z,1012.00
2023-04-18T02:46:32.132Z,1010.00
2023-04-18T02:47:37.706Z,1011.00
2023-04-18T02:48:33.130Z,1014.00
2023-04-18T02:49:32.098Z,1013.00
2023-04-18T02:50:32.111Z,1015.00
2023-04-18T02:51:32.093Z,1012.00
2023-04-18T02:52:32.150Z,1010.00
2023-04-18T02:53:32.076Z,1005.00
2023-04-18T02:54:32.071Z,1007.00
2023-04-18T02:55:32.051Z,1013.00
2023-04-18T02:56:32.045Z,1017.00
2023-04-18T02:57:32.048Z,1019.00
2023-04-18T02:58:32.095Z,1018.00
2023-04-18T02:59:32.211Z,1018.00
2023-04-18T03:00:32.196Z,1014.00
2023-04-18T03:01:32.294Z,1011.00
2023-04-18T03:02:32.337Z,1011.00
2023-04-18T03:03:32.364Z,1014.00
2023-04-18T03:04:32.407Z,1014.00
2023-04-18T03:05:32.404Z,1015.00
2023-04-18T03:06:32.438Z,1016.00
2023-04-18T03:07:32.494Z,1013.00
2023-04-18T03:08:32.527Z,1011.00
2023-04-18T03:09:32.570Z,1009.00
2023-04-18T03:10:32.617Z,1009.00
2023-04-18T03:11:32.639Z,1012.00
2023-04-18T03:12:32.681Z,1006.00
2023-04-18T03:13:32.734Z,1007.00
2023-04-18T03:14:32.786Z,1005.00
2023-04-18T03:15:32.842Z,1005.00
2023-04-18T03:16:32.871Z,1006.00
2023-04-18T03:17:32.944Z,1007.00
2023-04-18T03:18:32.984Z,1007.00
2023-04-18T03:19:33.002Z,1006.00
2023-04-18T03:20:33.048Z,1005.00
2023-04-18T03:21:33.081Z,1003.00
2023-04-18T03:22:33.142Z,1005.00
2023-04-18T03:23:33.174Z,1008.00
2023-04-18T03:24:33.384Z,1008.00
2023-04-18T03:25:33.270Z,1008.00
2023-04-18T03:26:33.299Z,1006.00
2023-04-18T03:27:33.353Z,1007.00
2023-04-18T03:28:33.404Z,1004.00
2023-04-18T03:29:33.463Z,1005.00
2023-04-18T03:30:33.490Z,1001.00
2023-04-18T03:31:33.619Z,998.00
2023-04-18T03:32:33.610Z,999.00
2023-04-18T03:33:33.623Z,997.00
2023-04-18T03:34:33.668Z,998.00
2023-04-18T03:35:33.714Z,998.00
2023-04-18T03:36:33.752Z,1000.00
2023-04-18T03:37:33.805Z,997.00
2023-04-18T03:38:33.835Z,997.00
2023-04-18T03:39:33.873Z,995.00
2023-04-18T03:40:33.943Z,994.00
2023-04-18T03:41:33.953Z,993.00
2023-04-18T03:42:33.988Z,993.00
2023-04-18T03:43:34.033Z,993.00
2023-04-18T03:44:34.065Z,995.00
2023-04-18T03:45:34.116Z,999.00
2023-04-18T03:46:34.225Z,997.00
2023-04-18T03:47:34.277Z,997.00
2023-04-18T03:48:34.240Z,996.00
2023-04-18T03:49:34.292Z,999.00
2023-04-18T03:50:34.331Z,999.00
2023-04-18T03:51:34.365Z,998.00
2023-04-18T03:52:34.898Z,998.00
2023-04-18T03:53:34.446Z,1000.00
2023-04-18T03:54:34.497Z,998.00
2023-04-18T03:55:34.547Z,999.00
2023-04-18T03:56:34.576Z,1001.00
2023-04-18T03:57:34.634Z,1002.00
2023-04-18T03:58:34.675Z,1004.00
2023-04-18T03:59:34.724Z,1003.00
2023-04-18T04:00:34.763Z,1001.00
2023-04-18T04:01:34.859Z,1001.00
2023-04-18T04:02:35.041Z,995.00
2023-04-18T04:03:35.024Z,998.00
2023-04-18T04:04:35.009Z,995.00
2023-04-18T04:05:34.990Z,992.00
2023-04-18T04:06:35.051Z,992.00
2023-04-18T04:07:35.084Z,991.00
2023-04-18T04:08:35.127Z,992.00
2023-04-18T04:09:35.169Z,992.00
2023-04-18T04:10:35.193Z,990.00
2023-04-18T04:11:35.229Z,983.00
2023-04-18T04:12:35.339Z,984.00
2023-04-18T04:13:35.318Z,984.00
2023-04-18T04:14:35.347Z,986.00
2023-04-18T04:15:35.389Z,983.00
2023-04-18T04:16:35.464Z,983.00
2023-04-18T04:17:35.522Z,981.00
2023-04-18T04:18:35.543Z,980.00
2023-04-18T04:19:35.584Z,979.00
2023-04-18T04:20:35.628Z,976.00
2023-04-18T04:21:35.663Z,980.00
2023-04-18T04:22:35.700Z,978.00
2023-04-18T04:23:35.731Z,979.00
2023-04-18T04:24:35.781Z,978.00
2023-04-18T04:25:35.829Z,982.00
2023-04-18T04:26:35.872Z,983.00
2023-04-18T04:27:35.923Z,982.00
2023-04-18T04:28:35.981Z,980.00
2023-04-18T04:29:36.000Z,980.00
2023-04-18T04:30:36.052Z,980.00
2023-04-18T04:31:36.123Z,978.00
2023-04-18T04:32:36.163Z,977.00
2023-04-18T04:33:36.170Z,977.00
2023-04-18T04:34:36.222Z,979.00
2023-04-18T04:35:36.268Z,979.00
2023-04-18T04:36:36.303Z,976.00
2023-04-18T04:37:36.348Z,974.00
2023-04-18T04:38:36.382Z,974.00
2023-04-18T04:39:36.417Z,970.00
2023-04-18T04:40:36.471Z,972.00
2023-04-18T04:41:36.506Z,974.00
2023-04-18T04:42:36.534Z,973.00
2023-04-18T04:43:36.582Z,975.00
2023-04-18T04:44:36.627Z,977.00
2023-04-18T04:45:36.666Z,976.00
2023-04-18T04:46:36.681Z,972.00
2023-04-18T04:47:36.798Z,974.00
2023-04-18T04:48:36.777Z,975.00
2023-04-18T04:49:36.819Z,977.00
2023-04-18T04:50:36.865Z,979.00
2023-04-18T04:51:36.899Z,976.00
2023-04-18T04:52:36.958Z,975.00
2023-04-18T04:53:36.957Z,976.00
2023-04-18T04:54:37.013Z,980.00
2023-04-18T04:55:37.052Z,978.00
2023-04-18T04:56:37.897Z,978.00
2023-04-18T04:57:37.121Z,974.00
2023-04-18T04:58:37.164Z,970.00
2023-04-18T04:59:37.182Z,971.00
2023-04-18T05:00:37.221Z,972.00
2023-04-18T05:01:37.306Z,972.00
2023-04-18T05:02:37.442Z,967.00
2023-04-18T05:03:37.654Z,965.00
2023-04-18T05:04:37.561Z,967.00
2023-04-18T05:05:37.441Z,970.00
2023-04-18T05:06:40.060Z,970.00
2023-04-18T05:07:37.484Z,968.00
2023-04-18T05:08:37.477Z,970.00
2023-04-18T05:09:37.486Z,967.00
2023-04-18T05:10:37.466Z,972.00
2023-04-18T05:11:37.463Z,970.00
2023-04-18T05:12:37.465Z,972.00
2023-04-18T05:13:37.459Z,971.00
2023-04-18T05:14:37.456Z,971.00
2023-04-18T05:15:37.477Z,974.00
2023-04-18T05:16:37.491Z,974.00
2023-04-18T05:17:37.470Z,974.00
2023-04-18T05:18:37.448Z,970.00
2023-04-18T05:19:37.447Z,975.00
2023-04-18T05:20:37.444Z,985.00
2023-04-18T05:21:37.419Z,987.00
2023-04-18T05:22:37.441Z,992.00
2023-04-18T05:23:37.444Z,991.00
2023-04-18T05:24:37.421Z,990.00
2023-04-18T05:25:37.422Z,995.00
2023-04-18T05:26:37.426Z,1012.00
2023-04-18T05:27:37.424Z,1064.00
2023-04-18T05:28:37.429Z,1102.00
2023-04-18T05:29:37.417Z,1137.00
2023-04-18T05:30:37.439Z,1127.00
2023-04-18T05:31:37.439Z,1147.00
2023-04-18T05:32:37.427Z,1153.00
2023-04-18T05:33:37.398Z,1266.00
2023-04-18T05:34:38.738Z,1266.00
2023-04-18T05:35:37.393Z,1231.00
2023-04-18T05:36:37.375Z,1461.00
2023-04-18T05:37:37.362Z,1369.00
2023-04-18T05:38:37.356Z,1355.00
2023-04-18T05:39:37.349Z,1341.00
2023-04-18T05:40:37.338Z,1404.00
2023-04-18T05:41:37.327Z,1406.00
2023-04-18T05:42:37.334Z,1395.00
2023-04-18T05:43:37.296Z,1353.00
2023-04-18T05:44:37.285Z,1438.00
2023-04-18T05:45:37.279Z,1459.00
2023-04-18T05:46:37.913Z,1488.00
2023-04-18T05:47:37.333Z,1548.00
2023-04-18T05:48:37.235Z,1553.00
2023-04-18T05:49:37.206Z,1554.00
2023-04-18T05:50:37.190Z,1579.00
2023-04-18T05:51:37.163Z,1594.00
2023-04-18T05:52:37.161Z,1572.00
2023-04-18T05:53:37.231Z,1630.00
2023-04-18T05:54:37.919Z,1630.00
2023-04-18T05:55:37.113Z,1644.00
2023-04-18T05:56:37.097Z,1407.00
2023-04-18T05:57:37.109Z,1242.00
2023-04-18T05:58:37.143Z,1133.00
2023-04-18T05:59:37.168Z,1251.00
2023-04-18T06:00:37.199Z,1314.00
2023-04-18T06:01:37.257Z,1301.00
2023-04-18T06:02:37.386Z,1312.00
2023-04-18T06:03:37.609Z,1399.00
2023-04-18T06:04:37.602Z,1511.00
2023-04-18T06:05:37.499Z,1528.00
2023-04-18T06:06:37.497Z,1534.00
2023-04-18T06:07:37.495Z,1592.00
2023-04-18T06:08:37.536Z,1598.00
2023-04-18T06:09:37.620Z,1579.00
2023-04-18T06:11:37.639Z,1632.00
2023-04-18T06:12:37.659Z,1660.00
2023-04-18T06:13:37.690Z,1661.00
2023-04-18T06:14:37.714Z,1703.00
2023-04-18T06:15:37.749Z,1729.00
2023-04-18T06:16:37.991Z,1745.00
2023-04-18T06:17:37.873Z,1744.00
2023-04-18T06:18:37.804Z,1770.00
2023-04-18T06:19:37.825Z,1792.00
2023-04-18T06:20:37.875Z,1765.00
2023-04-18T06:21:37.854Z,1821.00
2023-04-18T06:22:37.887Z,1892.00
2023-04-18T06:23:37.906Z,1829.00
2023-04-18T06:24:37.917Z,1741.00
2023-04-18T06:25:37.948Z,1724.00
2023-04-18T06:26:37.968Z,1727.00
2023-04-18T06:27:38.004Z,1335.00
2023-04-18T06:28:38.936Z,1059.00
2023-04-18T06:29:38.122Z,854.00
2023-04-18T06:30:38.105Z,885.00
2023-04-18T06:31:38.209Z,1125.00
2023-04-18T06:32:38.255Z,1250.00
2023-04-18T06:33:38.270Z,1420.00
2023-04-18T06:34:38.317Z,1057.00
2023-04-18T06:35:38.391Z,1080.00
2023-04-18T06:36:38.422Z,1317.00
2023-04-18T06:37:39.446Z,1225.00
2023-04-18T06:38:38.495Z,1207.00
2023-04-18T06:39:38.507Z,1166.00
2023-04-18T06:40:38.496Z,1522.00
2023-04-18T06:41:38.541Z,1478.00
2023-04-18T06:42:38.528Z,1880.00
2023-04-18T06:43:38.747Z,1666.00
2023-04-18T06:44:38.609Z,1459.00
2023-04-18T06:45:38.837Z,1393.00
2023-04-18T06:46:38.727Z,1951.00
2023-04-18T06:47:38.794Z,1584.00
2023-04-18T06:48:38.814Z,1495.00
2023-04-18T06:49:38.850Z,1464.00
2023-04-18T06:50:38.882Z,1467.00
2023-04-18T06:51:38.902Z,1476.00
2023-04-18T06:52:39.067Z,1539.00
2023-04-18T06:53:38.950Z,1542.00
2023-04-18T06:54:38.958Z,1594.00
2023-04-18T06:55:38.977Z,1616.00
2023-04-18T06:56:38.991Z,1626.00
2023-04-18T06:57:39.001Z,1772.00
2023-04-18T06:58:38.996Z,1767.00
2023-04-18T06:59:38.988Z,1706.00
2023-04-18T07:00:38.989Z,1767.00
2023-04-18T07:01:39.015Z,1790.00
2023-04-18T07:02:39.023Z,1866.00
2023-04-18T07:03:38.997Z,1830.00
2023-04-18T07:04:39.180Z,1802.00
2023-04-18T07:05:38.960Z,1831.00
2023-04-18T07:06:38.958Z,1895.00
2023-04-18T07:07:38.976Z,1962.00
2023-04-18T07:08:38.920Z,1940.00
2023-04-18T07:09:38.910Z,1932.00
2023-04-18T07:10:38.889Z,1946.00
2023-04-18T07:11:38.855Z,1942.00
2023-04-18T07:12:39.454Z,1986.00
2023-04-18T07:13:38.909Z,2746.00
2023-04-18T07:14:38.909Z,2166.00
2023-04-18T07:15:38.950Z,2248.00
2023-04-18T07:16:39.033Z,2095.00
2023-04-18T07:17:39.048Z,2075.00
2023-04-18T07:18:39.079Z,1962.00
2023-04-18T07:19:39.031Z,2105.00
2023-04-18T07:20:39.064Z,2115.00
2023-04-18T07:21:39.083Z,2106.00
2023-04-18T07:22:39.122Z,2094.00
2023-04-18T07:23:39.191Z,2089.00
2023-04-18T07:24:39.882Z,2069.00
2023-04-18T07:25:39.193Z,2064.00
2023-04-18T07:26:39.211Z,2061.00
2023-04-18T07:27:39.198Z,2060.00
2023-04-18T07:28:39.243Z,2053.00
2023-04-18T07:29:39.247Z,2057.00
2023-04-18T07:30:39.261Z,2063.00
2023-04-18T07:31:39.272Z,2065.00
2023-04-18T07:32:39.294Z,2065.00
2023-04-18T07:33:39.289Z,2058.00
2023-04-18T07:34:39.285Z,2055.00
2023-04-18T07:35:39.296Z,2051.00
2023-04-18T07:36:39.307Z,2049.00
2023-04-18T07:37:39.317Z,2047.00
2023-04-18T07:38:39.319Z,2041.00
2023-04-18T07:39:39.344Z,2031.00
2023-04-18T07:40:39.362Z,2026.00
2023-04-18T07:41:39.352Z,2020.00
2023-04-18T07:42:39.354Z,2021.00
2023-04-18T07:43:39.376Z,2017.00
2023-04-18T07:44:39.368Z,2012.00
2023-04-18T07:45:39.375Z,2010.00
2023-04-18T07:46:39.377Z,2010.00
2023-04-18T07:47:39.371Z,2012.00
2023-04-18T07:48:39.359Z,2009.00
2023-04-18T07:49:39.369Z,2006.00
2023-04-18T07:50:39.341Z,1998.00
2023-04-18T07:51:39.345Z,1993.00
2023-04-18T07:52:39.603Z,1991.00
2023-04-18T07:53:39.332Z,1985.00
2023-04-18T07:54:39.313Z,1980.00
2023-04-18T07:55:39.305Z,1977.00
2023-04-18T07:56:39.333Z,1975.00
2023-04-18T07:57:39.274Z,1975.00
2023-04-18T07:58:39.277Z,1977.00
2023-04-18T07:59:40.895Z,1978.00
2023-04-18T08:00:39.240Z,1975.00
2023-04-18T08:01:39.235Z,1972.00
2023-04-18T08:02:39.322Z,1965.00
2023-04-18T08:03:39.361Z,1960.00
2023-04-18T08:04:39.453Z,1958.00
2023-04-18T08:05:39.258Z,1955.00
2023-04-18T08:06:39.193Z,1948.00
2023-04-18T08:07:39.187Z,1945.00
2023-04-18T08:08:39.169Z,1941.00
2023-04-18T08:09:39.159Z,1937.00
2023-04-18T08:10:39.145Z,1935.00
2023-04-18T08:11:39.138Z,1932.00
2023-04-18T08:12:39.266Z,1931.00
2023-04-18T08:13:39.111Z,1934.00
2023-04-18T08:14:39.125Z,1702.00
2023-04-18T08:15:39.136Z,1512.00
2023-04-18T08:16:39.270Z,1400.00
2023-04-18T08:17:39.281Z,1325.00
2023-04-18T08:18:39.239Z,1251.00
2023-04-18T08:19:39.271Z,1206.00
2023-04-18T08:20:39.360Z,1182.00
2023-04-18T08:21:39.387Z,1182.00
2023-04-18T08:22:53.641Z,1277.00
2023-04-18T08:23:40.427Z,1255.00
2023-04-18T08:24:39.425Z,1253.00
2023-04-18T08:25:39.405Z,1200.00
2023-04-18T08:26:39.414Z,1650.00
2023-04-18T08:27:39.392Z,1166.00
2023-04-18T08:28:39.561Z,1241.00
2023-04-18T08:29:39.380Z,1261.00
2023-04-18T08:30:39.373Z,1215.00
2023-04-18T08:31:39.392Z,1248.00
2023-04-18T08:32:39.398Z,1359.00
2023-04-18T08:33:39.324Z,1389.00
2023-04-18T08:34:39.333Z,1459.00
2023-04-18T08:35:39.343Z,1457.00
2023-04-18T08:36:39.359Z,1465.00
2023-04-18T08:37:39.359Z,1494.00
2023-04-18T08:38:39.352Z,1499.00
2023-04-18T08:39:39.363Z,1581.00
2023-04-18T08:40:39.354Z,1581.00
2023-04-18T08:41:39.336Z,1572.00
2023-04-18T08:42:39.318Z,1619.00
2023-04-18T08:43:39.322Z,1609.00
2023-04-18T08:44:39.312Z,1617.00
2023-04-18T08:45:39.354Z,1669.00
2023-04-18T08:46:39.359Z,1660.00
2023-04-18T08:47:39.382Z,1665.00
2023-04-18T08:48:39.353Z,1683.00
2023-04-18T08:49:39.364Z,1725.00
2023-04-18T08:50:39.384Z,1790.00
2023-04-18T08:51:39.423Z,1774.00
2023-04-18T08:52:39.459Z,1780.00
2023-04-18T08:53:39.495Z,1859.00
2023-04-18T08:54:40.461Z,1865.00
2023-04-18T08:55:39.441Z,1886.00
2023-04-18T08:56:39.404Z,1916.00
2023-04-18T08:57:39.454Z,1913.00
2023-04-18T08:58:39.376Z,1908.00
2023-04-18T08:59:39.333Z,1906.00
2023-04-18T09:00:39.340Z,1934.00
2023-04-18T09:01:39.357Z,1942.00
2023-04-18T09:02:39.325Z,1951.00
2023-04-18T09:03:39.385Z,1956.00
2023-04-18T09:04:39.414Z,1985.00
2023-04-18T09:05:39.333Z,1997.00
2023-04-18T09:06:39.370Z,2007.00
2023-04-18T09:07:39.419Z,2037.00
2023-04-18T09:08:39.425Z,2039.00
2023-04-18T09:09:39.454Z,2038.00
2023-04-18T09:10:39.471Z,2040.00
2023-04-18T09:11:39.504Z,2057.00
2023-04-18T09:12:39.525Z,2091.00
2023-04-18T09:13:39.538Z,2104.00
2023-04-18T09:14:39.564Z,2071.00
2023-04-18T09:15:39.614Z,2096.00
2023-04-18T09:16:39.694Z,2075.00
2023-04-18T09:17:39.684Z,1917.00
2023-04-18T09:18:39.660Z,2020.00
2023-04-18T09:19:39.675Z,1911.00
2023-04-18T09:20:39.697Z,1903.00
2023-04-18T09:21:39.725Z,1929.00
2023-04-18T09:22:40.021Z,1930.00
2023-04-18T09:23:39.775Z,1931.00
2023-04-18T09:24:39.820Z,1924.00
2023-04-18T09:25:42.601Z,1912.00
2023-04-18T09:26:39.828Z,1884.00
2023-04-18T09:27:39.804Z,1851.00
2023-04-18T09:28:39.777Z,1838.00
2023-04-18T09:29:39.764Z,1807.00
2023-04-18T09:30:39.794Z,1758.00
2023-04-18T09:31:39.714Z,1745.00
2023-04-18T09:32:39.734Z,1665.00
2023-04-18T09:33:39.643Z,1729.00
2023-04-18T09:34:39.621Z,1613.00
2023-04-18T09:35:39.598Z,1698.00
2023-04-18T09:36:39.594Z,1582.00
2023-04-18T09:37:39.549Z,1659.00
2023-04-18T09:38:39.517Z,1618.00
2023-04-18T09:39:39.480Z,1567.00
2023-04-18T09:40:39.474Z,1542.00
2023-04-18T09:41:39.451Z,1514.00
2023-04-18T09:42:39.418Z,1497.00
2023-04-18T09:43:39.403Z,1499.00
2023-04-18T09:44:39.397Z,1497.00
2023-04-18T09:45:39.350Z,1446.00
2023-04-18T09:46:39.414Z,1458.00
2023-04-18T09:47:39.313Z,1435.00
2023-04-18T09:48:39.272Z,1398.00
2023-04-18T09:49:39.255Z,1427.00
2023-04-18T09:50:39.245Z,1431.00
2023-04-18T09:51:39.204Z,1399.00
2023-04-18T09:52:39.184Z,1386.00
2023-04-18T09:53:39.167Z,1362.00
2023-04-18T09:54:39.122Z,1416.00
2023-04-18T09:55:39.099Z,1429.00
2023-04-18T09:56:39.068Z,1379.00
2023-04-18T09:57:39.044Z,1381.00
2023-04-18T09:58:39.020Z,1438.00
2023-04-18T09:59:39.005Z,1431.00
2023-04-18T10:00:39.946Z,1389.00
2023-04-18T10:01:39.012Z,1408.00
2023-04-18T10:02:39.033Z,1390.00
2023-04-18T10:03:38.971Z,1385.00
2023-04-18T10:04:39.012Z,1314.00
2023-04-18T10:05:38.920Z,1310.00
2023-04-18T10:06:38.842Z,1317.00
2023-04-18T10:07:39.518Z,1295.00
2023-04-18T10:08:38.795Z,1293.00
2023-04-18T10:09:38.799Z,1286.00
2023-04-18T10:10:39.313Z,1284.00
2023-04-18T10:11:38.770Z,1283.00
2023-04-18T10:12:38.771Z,1292.00
2023-04-18T10:13:38.743Z,1266.00
2023-04-18T10:14:38.738Z,1229.00
2023-04-18T10:15:38.814Z,1213.00
2023-04-18T10:16:38.850Z,1168.00
2023-04-18T10:17:39.206Z,1133.00
2023-04-18T10:18:38.780Z,1008.00
2023-04-18T10:19:38.774Z,990.00
2023-04-18T10:20:38.870Z,1148.00
2023-04-18T10:21:38.807Z,1045.00
2023-04-18T10:22:40.448Z,1028.00
2023-04-18T10:23:38.838Z,1046.00
2023-04-18T10:24:38.856Z,1048.00
2023-04-18T10:25:38.874Z,1047.00
2023-04-18T10:26:38.878Z,1097.00
2023-04-18T10:27:38.893Z,1107.00
2023-04-18T10:28:39.530Z,1099.00
2023-04-18T10:29:38.900Z,1099.00
2023-04-18T10:30:38.919Z,1089.00
2023-04-18T10:31:39.005Z,1082.00
2023-04-18T10:32:38.944Z,1083.00
2023-04-18T10:33:41.024Z,1080.00
2023-04-18T10:34:38.925Z,1084.00
2023-04-18T10:35:40.885Z,1085.00
2023-04-18T10:36:38.962Z,1087.00
2023-04-18T10:37:38.947Z,1085.00
2023-04-18T10:38:39.527Z,1085.00
2023-04-18T10:39:39.459Z,1084.00
2023-04-18T10:40:38.968Z,1084.00
2023-04-18T10:41:38.975Z,1084.00
2023-04-18T10:42:38.996Z,1084.00
2023-04-18T10:43:38.985Z,1082.00
2023-04-18T10:44:38.988Z,1085.00
2023-04-18T10:45:39.001Z,1085.00
2023-04-18T10:46:39.042Z,1085.00
2023-04-18T10:47:39.065Z,1084.00
2023-04-18T10:48:39.057Z,1084.00
2023-04-18T10:49:39.023Z,1085.00
2023-04-18T10:50:39.007Z,1082.00
2023-04-18T10:51:39.010Z,1082.00
2023-04-18T10:52:39.555Z,1082.00
2023-04-18T10:53:39.046Z,1084.00
2023-04-18T10:54:39.128Z,1080.00
2023-04-18T10:55:39.036Z,1079.00
2023-04-18T10:56:39.037Z,1082.00
2023-04-18T10:57:39.032Z,1087.00
2023-04-18T10:58:39.027Z,1088.00
2023-04-18T10:59:39.058Z,1087.00
2023-04-18T11:00:39.095Z,1084.00
2023-04-18T11:01:39.119Z,1083.00
2023-04-18T11:02:39.146Z,1082.00
2023-04-18T11:03:39.144Z,1080.00
2023-04-18T11:04:40.041Z,1075.00
2023-04-18T11:05:39.016Z,1072.00
2023-04-18T11:06:38.987Z,1073.00
2023-04-18T11:07:38.980Z,1073.00
2023-04-18T11:08:38.927Z,1072.00
2023-04-18T11:09:38.923Z,1075.00
2023-04-18T11:10:38.906Z,1077.00
2023-04-18T11:11:38.934Z,1074.00
2023-04-18T11:12:38.859Z,1071.00
2023-04-18T11:13:38.826Z,1070.00
2023-04-18T11:14:38.811Z,1074.00
2023-04-18T11:15:38.812Z,1075.00
2023-04-18T11:16:38.868Z,1074.00
2023-04-18T11:17:38.790Z,1076.00
2023-04-18T11:18:38.722Z,1073.00
2023-04-18T11:19:38.713Z,1068.00
2023-04-18T11:20:38.692Z,1068.00
2023-04-18T11:21:38.660Z,1068.00
2023-04-18T11:22:38.656Z,1071.00
2023-04-18T11:23:38.624Z,1071.00
2023-04-18T11:24:38.627Z,1073.00
2023-04-18T11:25:38.598Z,1072.00
2023-04-18T11:26:38.610Z,1075.00
2023-04-18T11:27:38.626Z,1075.00
2023-04-18T11:28:38.641Z,1074.00
2023-04-18T11:29:38.653Z,1073.00
2023-04-18T11:30:38.672Z,1073.00
2023-04-18T11:31:38.713Z,1075.00
2023-04-18T11:32:38.722Z,1072.00
2023-04-18T11:33:38.719Z,1071.00
2023-04-18T11:34:38.734Z,1073.00
2023-04-18T11:35:38.764Z,1075.00
2023-04-18T11:36:38.798Z,1077.00
2023-04-18T11:37:38.794Z,1079.00
2023-04-18T11:38:38.791Z,1081.00
2023-04-18T11:39:38.806Z,1079.00
2023-04-18T11:40:38.872Z,1079.00
2023-04-18T11:41:38.824Z,1079.00
2023-04-18T11:42:38.864Z,1078.00
2023-04-18T11:43:38.845Z,1079.00
2023-04-18T11:44:38.853Z,1077.00
2023-04-18T11:45:38.902Z,1075.00
2023-04-18T11:46:38.911Z,1074.00
2023-04-18T11:47:38.942Z,1071.00
2023-04-18T11:48:38.913Z,1070.00
2023-04-18T11:49:38.952Z,1070.00
2023-04-18T11:50:38.957Z,1070.00
2023-04-18T11:51:39.024Z,1067.00
2023-04-18T11:52:39.003Z,1068.00
2023-04-18T11:53:39.030Z,1068.00
2023-04-18T11:54:39.062Z,1071.00
2023-04-18T11:55:39.073Z,1071.00
2023-04-18T11:56:39.141Z,1075.00
2023-04-18T11:57:39.126Z,1075.00
2023-04-18T11:58:39.166Z,1072.00
2023-04-18T11:59:39.208Z,1071.00
2023-04-18T12:00:39.209Z,1069.00
2023-04-18T12:01:39.216Z,1069.00
2023-04-18T12:02:39.358Z,1070.00
2023-04-18T12:03:39.437Z,1066.00
2023-04-18T12:04:39.431Z,1068.00
2023-04-18T12:05:39.498Z,1069.00
2023-04-18T12:06:39.359Z,1072.00
2023-04-18T12:07:39.367Z,1070.00
2023-04-18T12:08:41.000Z,1070.00
2023-04-18T12:09:39.377Z,1068.00
2023-04-18T12:10:39.413Z,1069.00